Latest Weather Observations for Leigh Creek

IDS60801

Issued at 8:35 am CST Thursday 18 September 2014 (issued every 30 minutes, with the page automatically refreshed every 10 minutes)

About weather observations | Map of weather stations | Latest weather observations for SA | Other Formats
Station Details ID: 017110 Name: LEIGH CREEK AIRPORT Lat: -30.60 Lon: 138.42 Height: 258.8 m
Data from the previous 72 hours. | See also: Recent months at Leigh Creek
Date/Time
CST
Temp
°C
App
Temp
°C
Dew
Point
Rel
Hum
%
Delta-T
°C
Wind Press
QNH
hPa
Press
MSL
hPa
Rain
since 9 am
mm
Dir
 
Spd
km/h
Gust
km/h
Spd
kts
Gust
kts
18/08:30am 14.6 8.1 2.5 44 5.4 ESE 26 32 14 17 1025.5 1025.1 0.0
18/08:00am 13.6 6.7 2.8 48 4.8 ESE 28 35 15 19 1025.2 1024.8 0.0
18/07:30am 12.5 6.5 3.2 53 4.2 ESE 24 32 13 17 1025.0 1024.6 0.0
18/07:00am 11.4 6.1 2.9 56 3.8 ESE 20 28 11 15 1024.9 1024.5 0.0
18/06:30am 9.9 6.0 3.2 63 2.9 SE 13 17 7 9 1024.7 1024.3 0.0
18/06:00am 8.7 5.3 1.8 62 2.9 SE 9 13 5 7 1024.3 1024.0 0.0
18/05:30am 7.9 4.8 1.1 62 2.8 ESE 7 9 4 5 1023.9 1023.5 0.0
18/05:00am 7.6 4.2 -0.6 56 3.2 ESE 7 9 4 5 1023.6 1023.2 0.0
18/04:30am 7.3 3.2 -0.2 59 2.9 ESE 11 13 6 7 1023.5 1023.1 0.0
18/04:00am 6.6 3.1 -2.5 52 3.4 SE 6 9 3 5 1023.4 1023.0 0.0
18/03:30am 7.8 4.3 -1.4 52 3.5 SE 7 9 4 5 1023.4 1023.0 0.0
18/03:00am 7.5 4.0 -1.7 52 3.5 SE 7 11 4 6 1023.3 1022.9 0.0
18/02:30am 8.3 4.8 -1.5 50 3.8 SE 7 9 4 5 1023.3 1022.9 0.0
18/02:00am 8.2 3.9 -1.6 50 3.8 E 11 13 6 7 1023.5 1023.1 0.0
18/01:30am 8.8 5.5 -1.3 49 3.9 SE 6 7 3 4 1023.8 1023.4 0.0
18/01:00am 9.3 5.8 -1.1 48 4.1 SE 7 11 4 6 1023.7 1023.3 0.0
18/12:30am 9.8 6.0 -0.7 48 4.2 SE 9 11 5 6 1024.0 1023.6 0.0
18/12:00am 11.2 7.8 -0.3 45 4.7 S 7 11 4 6 1024.2 1023.8 0.0
 
Date/Time
CST
Temp
°C
App
Temp
°C
Dew
Point
Rel
Hum
%
Delta-T
°C
Wind Press
QNH
hPa
Press
MSL
hPa
Rain
since 9 am
mm
Dir
 
Spd
km/h
Gust
km/h
Spd
kts
Gust
kts
17/11:30pm 12.0 7.2 0.1 44 4.9 S 15 17 8 9 1024.0 1023.6 0.0
17/11:00pm 12.5 7.3 0.0 42 5.2 S 17 20 9 11 1023.9 1023.5 0.0
17/10:30pm 13.0 7.3 -0.6 39 5.6 SSW 19 22 10 12 1023.8 1023.4 0.0
17/10:00pm 13.9 8.2 -0.9 36 6.2 S 19 24 10 13 1023.7 1023.3 0.0
17/09:30pm 14.1 8.4 -1.1 35 6.3 SSW 19 24 10 13 1023.5 1023.1 0.0
17/09:00pm 14.5 9.1 -1.2 34 6.5 S 17 22 9 12 1023.1 1022.7 0.0
17/08:30pm 14.8 10.0 -0.1 36 6.3 S 15 20 8 11 1022.7 1022.3 0.0
17/08:00pm 15.3 10.5 -0.1 35 6.6 SSW 15 20 8 11 1022.4 1022.0 0.0
17/07:30pm 16.1 10.4 0.3 34 6.9 SSW 20 28 11 15 1021.9 1021.5 0.0
17/07:00pm 16.8 10.6 -0.4 31 7.4 SSW 22 28 12 15 1021.6 1021.2 0.0
17/06:30pm 17.5 11.2 -1.2 28 8.0 SSW 22 30 12 16 1021.2 1020.8 0.0
17/06:00pm 18.3 11.3 -0.5 28 8.2 SSW 26 33 14 18 1020.9 1020.4 0.0
17/05:30pm 19.1 11.7 -0.8 26 8.7 SSW 28 35 15 19 1020.5 1020.1 0.0
17/05:00pm 19.9 12.0 -1.2 24 9.2 SW 30 35 16 19 1020.2 1019.8 0.0
17/04:30pm 20.1 13.9 -0.5 25 9.1 SW 22 32 12 17 1020.0 1019.6 0.0
17/04:00pm 20.4 14.4 -1.4 23 9.5 S 20 33 11 18 1019.9 1019.5 0.0
17/03:30pm 20.9 13.8 -1.6 22 9.8 SSW 26 35 14 19 1019.9 1019.5 0.0
17/03:00pm 20.5 13.9 -3.2 20 10.0 S 22 35 12 19 1020.0 1019.6 0.0
17/02:30pm 20.4 14.2 -0.3 25 9.2 SSW 22 35 12 19 1020.1 1019.7 0.0
17/02:00pm 20.3 14.0 -0.9 24 9.3 SSW 22 33 12 18 1020.2 1019.8 0.0
17/01:30pm 19.9 13.8 0.4 27 8.8 SSW 22 41 12 22 1020.5 1020.1 0.0
17/01:00pm 19.8 13.7 0.3 27 8.8 SSW 22 33 12 18 1020.9 1020.4 0.0
17/12:30pm 18.8 13.7 0.9 30 8.1 SSW 17 26 9 14 1021.2 1020.8 0.0
17/12:00pm 18.2 12.7 2.1 34 7.4 SW 20 32 11 17 1021.5 1021.1 0.0
17/11:30am 17.3 13.1 1.7 35 7.0 WSW 13 20 7 11 1021.9 1021.5 0.0
17/11:00am 17.1 11.6 1.9 36 6.9 SSW 20 30 11 16 1022.2 1021.8 0.0
17/10:30am 17.3 11.8 2.1 36 6.9 SSW 20 32 11 17 1022.5 1022.1 0.0
17/10:00am 16.8 10.6 2.4 38 6.6 SSW 24 32 13 17 1022.7 1022.3 0.0
17/09:30am 15.8 10.4 2.6 41 6.0 SSW 20 30 11 16 1022.7 1022.3 0.0
17/09:00am 15.4 11.7 4.5 48 5.1 SSW 13 17 7 9 1022.5 1022.1 -
17/08:30am 14.3 10.2 4.6 52 4.5 SSW 15 19 8 10 1022.3 1021.9 -
17/08:00am 13.1 9.0 4.5 56 4.0 SSW 15 19 8 10 1022.1 1021.7 -
17/07:30am 11.5 7.4 4.3 61 3.3 SSW 15 20 8 11 1021.7 1021.3 -
17/07:00am 9.8 5.9 3.5 65 2.8 S 13 17 7 9 1021.1 1020.7 -
17/06:30am 8.9 4.2 3.1 67 2.5 SSW 17 20 9 11 1020.8 1020.3 -
17/06:00am 8.8 3.6 2.6 65 2.6 SSW 19 22 10 12 1020.4 1020.0 -
17/05:30am 8.8 3.3 1.7 61 3.0 S 20 24 11 13 1020.0 1019.6 -
17/05:00am 9.3 3.4 1.5 58 3.3 SSW 22 28 12 15 1019.6 1019.2 -
17/04:30am 9.0 5.5 1.2 58 3.2 S 9 19 5 10 1019.4 1019.0 -
17/04:00am 8.6 4.8 -0.7 52 3.7 SE 9 13 5 7 1019.2 1018.8 -
17/03:30am 9.2 6.8 -0.4 51 3.8 S 2 7 1 4 1019.0 1018.6 -
17/03:00am 9.7 6.3 -0.5 49 4.1 S 7 11 4 6 1018.8 1018.4 0.0
17/02:30am 10.2 5.7 0.0 49 4.2 S 13 15 7 8 1019.1 1018.7 -
17/02:00am 9.1 5.2 -1.6 47 4.2 S 9 13 5 7 1019.3 1018.9 -
17/01:30am 10.1 6.6 -1.3 45 4.5 SE 7 9 4 5 1019.2 1018.8 -
17/01:00am 10.3 6.9 -0.8 46 4.5 E 7 11 4 6 1019.4 1019.0 -
17/12:30am 10.4 6.1 -1.6 43 4.7 S 11 17 6 9 1019.4 1019.0 -
17/12:00am 11.6 8.2 -0.9 42 5.1 SSW 7 9 4 5 1019.4 1019.0 -
 
Date/Time
CST
Temp
°C
App
Temp
°C
Dew
Point
Rel
Hum
%
Delta-T
°C
Wind Press
QNH
hPa
Press
MSL
hPa
Rain
since 9 am
mm
Dir
 
Spd
km/h
Gust
km/h
Spd
kts
Gust
kts
16/11:30pm 12.5 8.7 -0.7 40 5.4 SSW 9 11 5 6 1019.7 1019.3 -
16/11:00pm 12.7 8.9 -0.9 39 5.6 SSW 9 11 5 6 1019.6 1019.2 -
16/10:30pm 13.6 9.0 -0.8 37 6.0 S 13 19 7 10 1019.9 1019.5 -
16/10:00pm 14.4 9.8 -0.8 35 6.4 S 13 19 7 10 1019.8 1019.4 -
16/09:30pm 14.0 8.7 -0.4 37 6.0 SSW 17 20 9 11 1019.8 1019.4 -
16/09:00pm 13.7 10.2 1.0 42 5.5 SSW 9 11 5 6 1019.5 1019.1 0.0
16/08:30pm 14.5 11.4 1.4 41 5.7 SSW 7 9 4 5 1019.3 1018.9 -
16/08:00pm 15.0 11.5 1.2 39 6.1 SSW 9 11 5 6 1019.1 1018.7 -
16/07:30pm 14.6 10.3 0.8 39 6.0 SSW 13 13 7 7 1018.8 1018.4 -
16/07:00pm 15.9 12.0 0.9 36 6.6 S 11 11 6 6 1018.2 1017.8 -
16/06:30pm 17.1 13.2 1.1 34 7.1 S 11 15 6 8 1017.7 1017.3 -
16/06:00pm 17.9 12.5 1.4 33 7.5 S 19 22 10 12 1017.3 1016.8 -
16/05:30pm 18.7 13.2 0.3 29 8.2 S 19 26 10 14 1017.2 1016.7 -
16/05:00pm 19.2 13.0 -0.2 27 8.6 SSW 22 28 12 15 1017.0 1016.5 -
16/04:30pm 19.6 13.8 -0.4 26 8.8 SW 20 30 11 16 1017.0 1016.5 -
16/04:00pm 20.1 14.6 0.5 27 8.9 S 19 26 10 14 1016.9 1016.4 -
16/03:30pm 20.0 14.3 0.5 27 8.8 S 20 28 11 15 1016.7 1016.2 -
16/03:00pm 20.1 14.5 1.0 28 8.7 SW 20 35 11 19 1016.9 1016.4 -
16/02:30pm 19.9 14.0 1.8 30 8.4 SSW 22 30 12 16 1017.2 1016.7 -
16/02:00pm 19.8 14.3 1.7 30 8.4 SW 20 33 11 18 1017.7 1017.3 0.0
16/01:30pm 19.5 14.4 3.2 34 7.7 SW 19 32 10 17 1018.1 1017.7 0.0
16/01:00pm 19.2 14.5 3.4 35 7.5 SSW 17 26 9 14 1018.4 1018.0 0.0
16/12:30pm 18.6 14.3 5.1 41 6.6 SW 17 28 9 15 1018.7 1018.3 0.0
16/12:00pm 18.0 13.2 4.6 41 6.5 SSW 19 24 10 13 1019.1 1018.7 0.0
16/11:30am 17.1 13.1 4.8 44 5.9 S 15 22 8 12 1019.6 1019.2 0.0
16/11:00am 16.5 11.7 5.5 48 5.4 SW 20 28 11 15 1020.1 1019.7 0.0
16/10:30am 16.8 12.7 6.0 49 5.3 SSW 17 26 9 14 1020.3 1019.9 0.0
16/10:00am 15.8 11.3 6.3 53 4.7 SSW 19 30 10 16 1020.3 1019.9 0.0
16/09:30am 15.1 11.0 6.4 56 4.3 S 17 26 9 14 1020.4 1020.0 0.0
16/09:00am 13.3 9.2 8.0 70 2.6 SSW 19 28 10 15 1020.4 1020.0 0.0
16/08:30am 12.5 7.8 7.8 73 2.3 S 22 30 12 16 1020.7 1020.2 0.0
16/08:00am 11.7 8.0 7.8 77 1.9 S 17 24 9 13 1020.3 1019.9 0.0
16/07:30am 10.4 7.0 7.6 83 1.4 S 15 26 8 14 1020.1 1019.7 0.0
16/07:00am 9.7 7.3 7.1 84 1.2 SSE 9 13 5 7 1019.7 1019.3 0.0
16/06:30am 8.1 6.1 6.2 88 0.9 S 6 9 3 5 1019.4 1019.0 0.0
16/06:00am 8.2 6.1 6.0 86 1.0 S 6 7 3 4 1019.3 1018.9 0.0
16/05:30am 8.8 6.8 6.4 85 1.1 S 6 9 3 5 1018.8 1018.4 0.0
16/05:00am 8.9 6.3 6.2 83 1.3 S 9 13 5 7 1018.4 1018.0 0.0
16/04:30am 9.3 5.2 6.2 81 1.4 S 17 20 9 11 1018.0 1017.6 0.0
16/04:00am 10.0 5.3 6.2 77 1.8 SSW 20 24 11 13 1018.0 1017.6 0.0
16/03:30am 10.2 5.1 6.2 76 1.9 SSW 22 26 12 14 1018.0 1017.6 0.0
16/03:00am 10.6 5.1 6.0 73 2.2 SSW 24 28 13 15 1017.7 1017.3 0.0
16/02:30am 10.6 5.8 5.8 72 2.2 SSW 20 26 11 14 1017.8 1017.4 0.0
16/02:00am 11.3 5.8 5.8 69 2.6 SSW 24 30 13 16 1017.8 1017.4 0.0
16/01:30am 11.8 7.1 5.9 67 2.8 SSW 20 26 11 14 1018.1 1017.7 0.0
16/01:00am 12.4 6.9 5.8 64 3.1 S 24 30 13 16 1018.4 1018.0 0.0
16/12:30am 12.9 7.4 6.0 63 3.3 S 24 30 13 16 1018.5 1018.1 0.0
16/12:00am 13.5 8.0 6.1 61 3.6 SSW 24 32 13 17 1018.6 1018.2 0.0
 
Date/Time
CST
Temp
°C
App
Temp
°C
Dew
Point
Rel
Hum
%
Delta-T
°C
Wind Press
QNH
hPa
Press
MSL
hPa
Rain
since 9 am
mm
Dir
 
Spd
km/h
Gust
km/h
Spd
kts
Gust
kts
15/11:30pm 13.6 8.9 6.2 61 3.6 S 20 26 11 14 1018.4 1018.0 0.0
15/11:00pm 14.0 8.8 5.6 57 4.0 SSW 22 28 12 15 1018.3 1017.9 0.0
15/10:30pm 14.2 9.8 5.0 54 4.3 S 17 20 9 11 1018.1 1017.7 0.0
15/10:00pm 14.5 10.4 4.2 50 4.8 S 15 17 8 9 1017.9 1017.5 0.0
15/09:30pm 14.7 10.4 3.5 47 5.1 S 15 17 8 9 1017.7 1017.3 0.0
15/09:00pm 15.3 12.1 3.1 44 5.6 S 9 13 5 7 1017.6 1017.1 0.0
15/08:30pm 16.2 13.1 3.6 43 5.9 S 9 13 5 7 1017.3 1016.8 0.0
15/08:00pm 16.2 12.7 3.3 42 6.0 S 11 13 6 7 1017.1 1016.6 0.0
15/07:30pm 17.6 13.7 3.5 39 6.6 S 13 17 7 9 1017.0 1016.5 0.0
15/07:00pm 18.6 13.0 3.6 37 7.1 S 22 32 12 17 1016.7 1016.2 0.0
15/06:30pm 19.0 12.4 4.0 37 7.2 S 28 37 15 20 1016.2 1015.8 0.0
15/06:00pm 19.7 12.7 4.2 36 7.5 S 30 43 16 23 1015.8 1015.4 0.0
15/05:30pm 20.5 12.9 3.7 33 8.1 SSW 33 43 18 23 1015.2 1014.8 0.0
15/05:00pm 21.5 14.1 4.1 32 8.5 SSW 32 41 17 22 1015.0 1014.6 0.0
15/04:30pm 22.2 14.9 4.7 32 8.7 SSW 32 46 17 25 1015.0 1014.6 0.0
15/04:03pm 22.1 14.9 5.1 33 8.5 SW 32 50 17 27 1014.7 1014.3 0.0
15/04:00pm 22.4 15.2 4.9 32 8.8 SW 32 41 17 22 1014.8 1014.4 0.0
15/03:56pm 22.5 15.0 4.5 31 9.0 SW 33 52 18 28 1014.8 1014.4 0.0
15/03:30pm 22.1 14.7 5.1 33 8.5 SSW 33 46 18 25 1014.7 1014.3 0.0
15/03:00pm 22.4 15.1 5.4 33 8.6 SSW 33 44 18 24 1014.8 1014.4 0.0
15/02:30pm 22.7 15.1 5.6 33 8.7 SSW 35 46 19 25 1014.9 1014.5 0.0
15/02:10pm 22.3 15.2 5.7 34 8.4 SSW 32 50 17 27 1015.1 1014.7 0.0
15/02:00pm 22.5 15.4 5.4 33 8.7 SSW 32 48 17 26 1015.2 1014.8 0.0
15/01:30pm 22.3 14.7 5.7 34 8.4 SSW 35 50 19 27 1015.3 1014.9 0.0
15/01:00pm 21.8 13.7 6.9 38 7.7 SW 39 52 21 28 1015.4 1015.0 0.0
15/12:30pm 21.5 14.2 7.3 40 7.4 SW 35 50 19 27 1015.6 1015.2 0.0
15/12:00pm 21.1 13.9 7.7 42 7.0 SW 35 46 19 25 1015.7 1015.3 0.0
15/11:33am 20.9 13.7 7.5 42 7.0 SW 35 54 19 29 1015.9 1015.5 0.0
15/11:30am 20.6 13.0 7.6 43 6.8 SW 37 54 20 29 1015.9 1015.5 0.0
15/11:00am 19.2 12.5 7.3 46 6.1 SW 32 44 17 24 1016.4 1016.0 0.0
15/10:30am 18.7 12.0 7.5 48 5.8 WSW 32 39 17 21 1016.7 1016.2 0.0
15/10:00am 18.6 11.9 7.4 48 5.7 SSW 32 46 17 25 1016.8 1016.3 0.0
15/09:43am 17.8 11.8 7.2 50 5.4 SW 28 46 15 25 1016.8 1016.3 0.0
15/09:30am 17.3 11.4 7.4 52 5.0 SW 28 39 15 21 1017.1 1016.6 0.0
15/09:00am 16.9 10.2 7.3 53 4.9 SW 32 43 17 23 1017.1 1016.6 0.0

Other Formats:

Comma delimited format used in spreadsheet applications
http://www.bom.gov.au/fwo/IDS60801/IDS60801.94674.axf

JavaScript Object Notation format (JSON) in row-major order
http://www.bom.gov.au/fwo/IDS60801/IDS60801.94674.json